ADDS METAR Data INFO
IDs: Format: Raw Decoded Include TAF

Data at: 1410 UTC 12 Dec 2017

KLNP 121355Z AUTO 28007KT 7SM BKN014 OVC021 01/00 A2977 RMK AO2
KLNP 121335Z AUTO 27009KT 10SM -DZ OVC016 01/00 A2977 RMK AO2
KLNP 121315Z AUTO 29015G20KT 10SM -DZ OVC018 02/00 A2977 RMK AO2
KLNP 121255Z AUTO 28010G15KT 10SM OVC022 02/M01 A2977 RMK AO2
KLNP 121235Z AUTO 30006G14KT 10SM OVC024 02/M01 A2976 RMK AO2
KLNP 121215Z AUTO 31008KT 10SM OVC026 03/M01 A2976 RMK AO2
KLNP 121155Z AUTO 30006KT 10SM OVC028 03/M01 A2976 RMK AO2
KLNP 121135Z AUTO 28007G14KT 10SM OVC030 03/M01 A2976 RMK AO2
KLNP 121115Z AUTO 30009KT 10SM OVC030 03/M01 A2975 RMK AO2
KLNP 121055Z AUTO 28011G14KT 10SM OVC032 03/M01 A2975 RMK AO2
KLNP 121035Z AUTO 29008KT 10SM OVC034 04/M01 A2975 RMK AO2
KLNP 121015Z AUTO 28008KT 10SM OVC036 04/M02 A2975 RMK AO2
KLNP 120955Z AUTO 28011G15KT 10SM SCT038 BKN050 04/M02 A2975 RMK AO2
KLNP 120935Z AUTO 25013G19KT 10SM SCT040 BKN050 05/M02 A2975 RMK AO2
KLNP 120915Z AUTO 27009G18KT 250V310 10SM OVC040 05/M01 A2976 RMK AO2
KLNP 120855Z AUTO 28005KT 10SM OVC040 05/00 A2976 RMK AO2
KLNP 120835Z AUTO 00000KT 10SM BKN042 BKN047 04/00 A2976 RMK AO2
KLNP 120815Z AUTO 25005KT 10SM BKN042 05/00 A2976 RMK AO2
KLNP 120755Z AUTO 25008KT 10SM BKN044 05/00 A2976 RMK AO2
KLNP 120735Z AUTO 24010KT 10SM CLR 05/00 A2976 RMK AO2
KLNP 120715Z AUTO 23009KT 10SM CLR 05/00 A2976 RMK AO2
KLNP 120655Z AUTO 23010G15KT 10SM CLR 05/00 A2976 RMK AO2
KLNP 120635Z AUTO 24012KT 10SM CLR 06/00 A2976 RMK AO2
KLNP 120615Z AUTO 24014G21KT 10SM CLR 06/00 A2977 RMK AO2
KLNP 120555Z AUTO 23016G24KT 10SM CLR 06/00 A2977 RMK AO2
KLNP 120535Z AUTO 23015G23KT 10SM CLR 06/00 A2978 RMK AO2
KLNP 120515Z AUTO 23017G22KT 10SM CLR 06/00 A2978 RMK AO2
KLNP 120455Z AUTO 23014G22KT 10SM CLR 06/00 A2980 RMK AO2
KLNP 120435Z AUTO 24015G23KT 10SM CLR 06/00 A2980 RMK AO2
KLNP 120415Z AUTO 23015G24KT 10SM CLR 06/00 A2980 RMK AO2
KLNP 120355Z AUTO 24013G21KT 10SM CLR 06/M01 A2981 RMK AO2
KLNP 120335Z AUTO 24013G23KT 10SM CLR 07/M01 A2982 RMK AO2
KLNP 120315Z AUTO 24018G25KT 10SM CLR 07/M01 A2982 RMK AO2
KLNP 120255Z AUTO 23015G24KT 10SM CLR 07/M01 A2982 RMK AO2
KLNP 120235Z AUTO 23017G24KT 10SM SCT110 07/M01 A2983 RMK AO2
KLNP 120215Z AUTO 25015G22KT 10SM SCT110 07/M01 A2984 RMK AO2
KLNP 120155Z AUTO 23017G21KT 10SM SCT110 07/M01 A2983 RMK AO2
KLNP 120135Z AUTO 23015G22KT 10SM CLR 08/M01 A2983 RMK AO2
KLNP 120115Z AUTO 23014G22KT 10SM CLR 08/M02 A2983 RMK AO2
KLNP 120055Z AUTO 22012G22KT 10SM CLR 07/M02 A2983 RMK AO2
KLNP 120035Z AUTO 20017G24KT 10SM CLR 07/M02 A2983 RMK AO2
KLNP 120015Z AUTO 20014G21KT 10SM CLR 07/M02 A2984 RMK AO2
KLNP 112355Z AUTO 21011G16KT 10SM CLR 06/M02 A2985 RMK AO2
KLNP 112335Z AUTO 19010KT 10SM CLR 06/M02 A2986 RMK AO2
KLNP 112315Z AUTO 20012KT 10SM CLR 06/M02 A2986 RMK AO2
KLNP 112255Z AUTO 19010KT 10SM CLR 06/M01 A2987 RMK AO2
KLNP 112235Z AUTO 20012KT 10SM CLR 06/M01 A2988 RMK AO2
KLNP 112215Z AUTO 19010G15KT 10SM CLR 06/M01 A2988 RMK AO2
KLNP 112155Z AUTO 20009G16KT 10SM CLR 07/M01 A2989 RMK AO2
KLNP 112130Z AUTO 20013G16KT 10SM CLR 07/M01 A2990 RMK AO2
KLNP 112115Z AUTO 19010KT 10SM CLR 08/M02 A2990 RMK AO2
KLNP 112055Z AUTO 19011KT 10SM CLR 08/M02 A2991 RMK AO2
KLNP 112035Z AUTO 21008KT 10SM CLR 09/M02 A2992 RMK AO2
KLNP 112015Z AUTO 18007KT 10SM CLR 10/M02 A2992 RMK AO2
KLNP 111955Z AUTO 23007KT 10SM CLR 10/M02 A2994 RMK AO2
KLNP 111935Z AUTO 19006KT 10SM CLR 10/M03 A2994 RMK AO2
KLNP 111915Z AUTO 24010G15KT 10SM CLR 10/M03 A2995 RMK AO2
KLNP 111855Z AUTO 20009KT 10SM SCT080 09/M02 A2996 RMK AO2
KLNP 111835Z AUTO 21007KT 10SM BKN080 07/M02 A2998 RMK AO2
KLNP 111815Z AUTO 22011KT 10SM SCT080 07/M02 A3001 RMK AO2
KLNP 111755Z AUTO 21008KT 10SM CLR 07/M02 A3001 RMK AO2
KLNP 111735Z AUTO 25005KT 10SM SCT120 06/M02 A3002 RMK AO2
KLNP 111715Z AUTO 26007KT 10SM CLR 06/M02 A3002 RMK AO2
KLNP 111655Z AUTO 23006KT 10SM CLR 05/M02 A3003 RMK AO2
KLNP 111635Z AUTO 22006KT 10SM CLR 05/M02 A3005 RMK AO2
KLNP 111615Z AUTO 20004KT 10SM CLR 04/M02 A3005 RMK AO2
KLNP 111555Z AUTO 19006KT 10SM CLR 03/M02 A3007 RMK AO2
KLNP 111535Z AUTO 22005KT 10SM CLR 02/M03 A3007 RMK AO2
KLNP 111515Z AUTO 23007KT 10SM CLR 02/M03 A3007 RMK AO2
KLNP 111455Z AUTO 23007KT 10SM CLR 01/M03 A3007 RMK AO2
KLNP 111435Z AUTO 23005KT 10SM CLR 01/M03 A3007 RMK AO2
KLNP 111415Z AUTO 00000KT 10SM CLR 01/M03 A3007 RMK AO2
KLNP 111355Z AUTO 17005KT 10SM CLR 00/M03 A3007 RMK AO2
KLNP 111335Z AUTO 00000KT 10SM CLR M01/M04 A3007 RMK AO2
KLNP 111315Z AUTO 00000KT 10SM CLR M02/M05 A3007 RMK AO2
KLNP 111255Z AUTO 25004KT 10SM CLR M02/M05 A3007 RMK AO2
KLNP 111235Z AUTO 26004KT 10SM CLR M02/M05 A3007 RMK AO2
KLNP 111215Z AUTO 26004KT 10SM CLR M02/M05 A3007 RMK AO2
KLNP 111155Z AUTO 26004KT 10SM CLR M02/M05 A3007 RMK AO2
KLNP 111135Z AUTO 26005KT 10SM CLR M02/M05 A3007 RMK AO2
KLNP 111115Z AUTO 25003KT 10SM CLR M02/M05 A3006 RMK AO2
KLNP 111055Z AUTO 25003KT 10SM CLR M01/M05 A3006 RMK AO2
KLNP 111035Z AUTO 25004KT 10SM CLR M02/M05 A3006 RMK AO2
KLNP 111015Z AUTO 00000KT 10SM CLR M01/M05 A3007 RMK AO2
KLNP 110955Z AUTO 00000KT 10SM CLR M01/M05 A3007 RMK AO2
KLNP 110935Z AUTO 23005KT 10SM CLR M01/M05 A3008 RMK AO2
KLNP 110915Z AUTO 25007KT 10SM CLR M01/M05 A3008 RMK AO2
KLNP 110855Z AUTO 24007KT 10SM CLR M01/M05 A3009 RMK AO2
KLNP 110835Z AUTO 25006KT 10SM CLR 00/M05 A3009 RMK AO2
KLNP 110815Z AUTO 25007KT 10SM CLR M01/M05 A3008 RMK AO2
KLNP 110755Z AUTO 24008KT 10SM CLR 00/M05 A3008 RMK AO2
KLNP 110735Z AUTO 24008KT 10SM CLR 00/M05 A3008 RMK AO2
KLNP 110715Z AUTO 24008KT 10SM CLR 00/M05 A3009 RMK AO2
KLNP 110655Z AUTO 24007KT 10SM CLR 00/M05 A3009 RMK AO2
KLNP 110635Z AUTO 23006KT 10SM CLR 00/M05 A3008 RMK AO2
KLNP 110615Z AUTO 23007KT 10SM CLR 00/M05 A3008 RMK AO2
KLNP 110555Z AUTO 20007KT 10SM CLR 00/M05 A3009 RMK AO2
KLNP 110535Z AUTO 22004KT 10SM CLR 00/M05 A3009 RMK AO2
KLNP 110515Z AUTO 23005KT 10SM CLR 00/M05 A3009 RMK AO2
KLNP 110455Z AUTO 22005KT 10SM CLR 00/M06 A3009 RMK AO2
KLNP 110435Z AUTO 21006KT 10SM SCT100 00/M06 A3009 RMK AO2
KLNP 110415Z AUTO 22005KT 10SM BKN100 00/M06 A3009 RMK AO2
KLNP 110355Z AUTO 22007KT 10SM SCT100 00/M06 A3009 RMK AO2
KLNP 110335Z AUTO 22005KT 10SM CLR 00/M06 A3009 RMK AO2
KLNP 110315Z AUTO 24006KT 10SM CLR 00/M06 A3009 RMK AO2
KLNP 110255Z AUTO 23005KT 10SM CLR 00/M06 A3008 RMK AO2
KLNP 110235Z AUTO 24010G18KT 10SM CLR 00/M06 A3008 RMK AO2
KLNP 110215Z AUTO 22007G16KT 10SM CLR 00/M06 A3008 RMK AO2